Time;durP1;ratioP1;P1;durP2;ratioP2;P2;SDS_P1;SDS_P2;PMS_P1;PMS_P2;Temp;Humidity;BMP_temperature;BMP_pressure;BME280_temperature;BME280_humidity;BME280_pressure;Samples;Min_cycle;Max_cycle;Signal;HPM_P1;HPM_P2
2023/07/02 00:01:14;;;;;;;24.13;8.60;;;;;;;;;;5110541;28;20137;-65
2023/07/02 00:03:40;;;;;;;23.52;8.75;;;;;;;;;;5099847;27;20446;-65
2023/07/02 00:06:07;;;;;;;30.60;8.30;;;;;;;;;;5107880;27;20051;-65
2023/07/02 00:08:33;;;;;;;27.20;8.20;;;;;;;;;;5111562;27;20111;-65
2023/07/02 00:10:59;;;;;;;32.50;9.45;;;;;;;;;;5112550;28;20039;-65
2023/07/02 00:13:25;;;;;;;34.80;9.52;;;;;;;;;;5108729;27;20067;-65
2023/07/02 00:15:52;;;;;;;26.50;8.57;;;;;;;;;;5110343;27;20418;-65
2023/07/02 00:18:18;;;;;;;30.48;10.48;;;;;;;;;;5115535;27;20080;-65
2023/07/02 00:20:44;;;;;;;23.63;9.13;;;;;;;;;;5099931;28;20051;-65
2023/07/02 00:23:10;;;;;;;24.65;8.32;;;;;;;;;;5140528;27;20066;-65
2023/07/02 00:25:37;;;;;;;27.38;9.07;;;;;;;;;;5117424;28;20391;-65
2023/07/02 00:28:03;;;;;;;24.98;8.35;;;;;;;;;;5109477;28;20047;-64
2023/07/02 00:30:29;;;;;;;24.67;9.15;;;;;;;;;;5107858;28;20047;-65
2023/07/02 00:32:56;;;;;;;24.50;9.23;;;;;;;;;;5111275;28;20123;-65
2023/07/02 00:35:22;;;;;;;27.42;9.02;;;;;;;;;;5108776;28;20129;-65
2023/07/02 00:37:49;;;;;;;29.52;8.95;;;;;;;;;;5110444;28;20063;-65
2023/07/02 00:40:16;;;;;;;31.55;9.45;;;;;;;;;;5107664;28;20107;-65
2023/07/02 00:42:42;;;;;;;28.95;9.82;;;;;;;;;;5101066;28;20050;-65
2023/07/02 00:45:09;;;;;;;31.33;9.65;;;;;;;;;;5108213;28;20483;-65
2023/07/02 00:47:35;;;;;;;27.70;9.25;;;;;;;;;;5113267;27;20058;-65
2023/07/02 00:50:02;;;;;;;27.00;9.07;;;;;;;;;;5111321;28;20163;-65
2023/07/02 00:52:29;;;;;;;26.33;9.38;;;;;;;;;;5111428;28;20161;-65
2023/07/02 00:54:55;;;;;;;34.88;10.35;;;;;;;;;;5112557;28;20040;-65
2023/07/02 00:57:21;;;;;;;30.75;10.05;;;;;;;;;;5105802;27;20131;-65
2023/07/02 00:59:47;;;;;;;36.75;10.05;;;;;;;;;;5112605;28;20126;-65
2023/07/02 01:02:13;;;;;;;35.75;9.02;;;;;;;;;;5103398;27;20047;-65
2023/07/02 01:04:40;;;;;;;24.33;9.15;;;;;;;;;;5114037;27;20507;-65
2023/07/02 01:07:09;;;;;;;31.63;9.90;;;;;;;;;;5101043;27;20028;-65
2023/07/02 01:09:36;;;;;;;24.35;9.45;;;;;;;;;;5106940;28;20574;-65
2023/07/02 01:12:08;;;;;;;34.17;9.38;;;;;;;;;;5113876;28;20040;-65
2023/07/02 01:14:38;;;;;;;22.05;8.90;;;;;;;;;;5114802;28;20055;-65
2023/07/02 01:17:05;;;;;;;27.27;9.10;;;;;;;;;;5114351;28;20495;-65
2023/07/02 01:19:40;;;;;;;28.80;10.43;;;;;;;;;;5112183;27;20049;-65
2023/07/02 01:22:06;;;;;;;29.40;8.88;;;;;;;;;;5110720;27;20051;-65
2023/07/02 01:24:33;;;;;;;24.08;8.80;;;;;;;;;;5111608;27;20096;-65
2023/07/02 01:27:03;;;;;;;30.85;9.32;;;;;;;;;;5114931;27;20471;-65
2023/07/02 01:29:30;;;;;;;33.80;9.32;;;;;;;;;;5115252;27;20403;-65
2023/07/02 01:31:56;;;;;;;29.50;9.88;;;;;;;;;;5112712;27;20039;-65
2023/07/02 01:34:23;;;;;;;36.42;9.05;;;;;;;;;;5111219;28;20036;-65
2023/07/02 01:36:49;;;;;;;33.15;10.15;;;;;;;;;;5117941;27;20068;-65
2023/07/02 01:39:15;;;;;;;26.13;8.75;;;;;;;;;;5107440;27;20039;-65
2023/07/02 01:41:46;;;;;;;32.05;10.07;;;;;;;;;;5106312;28;20058;-65
2023/07/02 01:44:12;;;;;;;30.42;8.68;;;;;;;;;;5104514;28;20357;-65
2023/07/02 01:46:38;;;;;;;31.45;9.25;;;;;;;;;;5112389;28;20059;-65
2023/07/02 01:49:04;;;;;;;32.33;9.80;;;;;;;;;;5105676;27;20044;-65
2023/07/02 01:51:31;;;;;;;26.58;8.52;;;;;;;;;;5109319;27;20139;-65
2023/07/02 01:53:57;;;;;;;31.00;8.52;;;;;;;;;;5112348;28;20047;-65
2023/07/02 01:56:23;;;;;;;28.33;9.25;;;;;;;;;;5114653;28;20071;-65
2023/07/02 01:58:49;;;;;;;26.05;9.18;;;;;;;;;;5113642;27;20491;-65
2023/07/02 02:01:15;;;;;;;32.20;9.30;;;;;;;;;;5110151;28;20035;-65
2023/07/02 02:03:42;;;;;;;24.00;8.45;;;;;;;;;;5113993;27;20047;-65
2023/07/02 02:06:08;;;;;;;27.65;10.10;;;;;;;;;;5111896;28;20062;-65
2023/07/02 02:08:34;;;;;;;22.48;9.10;;;;;;;;;;5108319;28;20114;-65
2023/07/02 02:11:01;;;;;;;27.63;9.50;;;;;;;;;;5111869;27;20130;-65
2023/07/02 02:13:27;;;;;;;23.02;8.10;;;;;;;;;;5112702;28;20546;-65
2023/07/02 02:15:54;;;;;;;28.98;9.15;;;;;;;;;;5105251;27;20126;-65
2023/07/02 02:18:21;;;;;;;32.17;9.77;;;;;;;;;;5113507;28;20035;-65
2023/07/02 02:20:47;;;;;;;30.60;9.38;;;;;;;;;;5110620;28;20123;-65
2023/07/02 02:23:13;;;;;;;32.90;10.63;;;;;;;;;;5112728;27;20040;-65
2023/07/02 02:25:39;;;;;;;35.75;10.40;;;;;;;;;;5108178;27;20048;-65
2023/07/02 02:28:05;;;;;;;32.20;9.32;;;;;;;;;;5113815;28;20483;-65
2023/07/02 02:30:31;;;;;;;27.35;8.45;;;;;;;;;;5109590;28;20051;-65
2023/07/02 02:32:57;;;;;;;26.92;9.70;;;;;;;;;;5109543;27;20051;-65
2023/07/02 02:35:24;;;;;;;26.63;9.10;;;;;;;;;;5108186;28;20053;-65
2023/07/02 02:37:50;;;;;;;28.90;8.82;;;;;;;;;;5113336;27;20031;-65
2023/07/02 02:40:16;;;;;;;28.83;8.27;;;;;;;;;;5111408;28;20436;-65
2023/07/02 02:42:42;;;;;;;30.02;9.23;;;;;;;;;;5112336;28;20036;-65
2023/07/02 02:45:09;;;;;;;28.63;8.68;;;;;;;;;;5109677;28;20134;-65
2023/07/02 02:47:35;;;;;;;26.58;8.48;;;;;;;;;;5097019;28;20044;-65
2023/07/02 02:50:01;;;;;;;23.52;7.95;;;;;;;;;;5112362;27;20051;-65
2023/07/02 02:52:27;;;;;;;32.45;10.02;;;;;;;;;;5109053;27;20130;-65
2023/07/02 02:54:53;;;;;;;28.30;9.02;;;;;;;;;;5111058;28;20478;-65
2023/07/02 02:57:20;;;;;;;31.55;8.63;;;;;;;;;;5112780;28;20036;-65
2023/07/02 02:59:46;;;;;;;25.95;8.57;;;;;;;;;;5111250;27;20043;-65
2023/07/02 03:02:12;;;;;;;32.22;9.15;;;;;;;;;;5110620;27;20043;-65
2023/07/02 03:04:39;;;;;;;29.83;9.32;;;;;;;;;;5112311;28;20044;-65
2023/07/02 03:07:07;;;;;;;34.45;8.38;;;;;;;;;;5114500;27;20043;-65
2023/07/02 03:09:33;;;;;;;23.83;8.90;;;;;;;;;;5110051;28;20047;-65
2023/07/02 03:12:00;;;;;;;26.95;8.63;;;;;;;;;;5112990;28;20040;-65
2023/07/02 03:14:26;;;;;;;24.10;8.35;;;;;;;;;;5111417;28;20436;-65
2023/07/02 03:16:52;;;;;;;26.90;8.02;;;;;;;;;;5100337;27;20595;-65
2023/07/02 03:19:18;;;;;;;31.48;8.60;;;;;;;;;;5106517;28;20036;-65
2023/07/02 03:21:45;;;;;;;25.23;8.63;;;;;;;;;;5113269;28;20044;-65
2023/07/02 03:24:14;;;;;;;24.40;7.28;;;;;;;;;;5111720;27;20120;-65
2023/07/02 03:26:41;;;;;;;21.42;6.55;;;;;;;;;;5113255;28;20080;-65
2023/07/02 03:29:07;;;;;;;29.70;9.00;;;;;;;;;;5108560;28;20048;-65
2023/07/02 03:31:33;;;;;;;22.48;8.07;;;;;;;;;;5107300;28;20069;-65
2023/07/02 03:34:02;;;;;;;21.75;8.13;;;;;;;;;;5109433;28;20067;-65
2023/07/02 03:36:28;;;;;;;25.23;8.40;;;;;;;;;;5112117;28;20043;-65
2023/07/02 03:38:54;;;;;;;30.92;9.57;;;;;;;;;;5111344;27;20043;-65
2023/07/02 03:41:21;;;;;;;31.55;8.07;;;;;;;;;;5112532;27;20109;-65
2023/07/02 03:43:47;;;;;;;26.00;7.95;;;;;;;;;;5107384;27;20043;-65
2023/07/02 03:46:14;;;;;;;28.08;8.80;;;;;;;;;;5111775;28;20051;-65
2023/07/02 03:48:40;;;;;;;28.33;8.95;;;;;;;;;;5112705;28;20073;-65
2023/07/02 03:51:06;;;;;;;23.48;7.85;;;;;;;;;;5102701;27;20122;-65
2023/07/02 03:53:32;;;;;;;28.67;8.80;;;;;;;;;;5103720;28;20448;-66
2023/07/02 03:55:59;;;;;;;23.33;7.95;;;;;;;;;;5110458;28;20083;-66
2023/07/02 03:58:25;;;;;;;22.15;8.07;;;;;;;;;;5112073;27;20441;-65
2023/07/02 04:00:51;;;;;;;28.40;8.55;;;;;;;;;;5107132;27;20036;-65
2023/07/02 04:03:18;;;;;;;22.65;6.97;;;;;;;;;;5110501;28;20477;-66
2023/07/02 04:05:44;;;;;;;25.48;7.43;;;;;;;;;;5109651;28;20444;-66
2023/07/02 04:08:10;;;;;;;19.38;6.20;;;;;;;;;;5108709;28;20412;-66
2023/07/02 04:10:36;;;;;;;19.50;6.28;;;;;;;;;;5111483;28;20058;-66
2023/07/02 04:13:03;;;;;;;25.10;6.60;;;;;;;;;;5090214;28;20095;-66
2023/07/02 04:15:29;;;;;;;20.83;6.28;;;;;;;;;;5112559;28;20127;-65
2023/07/02 04:17:55;;;;;;;16.10;6.43;;;;;;;;;;5127345;27;20043;-65
2023/07/02 04:20:21;;;;;;;24.13;7.50;;;;;;;;;;5108332;28;20042;-66
2023/07/02 04:22:48;;;;;;;20.92;6.80;;;;;;;;;;5129605;27;20123;-66
2023/07/02 04:25:15;;;;;;;33.83;7.50;;;;;;;;;;5113428;27;20478;-66
2023/07/02 04:27:42;;;;;;;18.13;5.30;;;;;;;;;;5106295;28;20050;-66
2023/07/02 04:30:09;;;;;;;18.67;5.93;;;;;;;;;;5109706;28;20060;-66
2023/07/02 04:32:36;;;;;;;19.98;5.88;;;;;;;;;;5106336;28;20043;-66
2023/07/02 04:35:02;;;;;;;18.55;5.95;;;;;;;;;;5109278;28;20502;-65
2023/07/02 04:37:29;;;;;;;18.88;7.57;;;;;;;;;;5111546;28;20083;-66
2023/07/02 04:39:55;;;;;;;26.10;7.18;;;;;;;;;;5111487;28;20050;-66
2023/07/02 04:42:21;;;;;;;17.65;5.72;;;;;;;;;;5111130;28;20036;-65
2023/07/02 04:44:47;;;;;;;19.80;6.03;;;;;;;;;;5108936;28;20135;-66
2023/07/02 04:47:13;;;;;;;19.33;6.90;;;;;;;;;;5099299;28;20940;-66
2023/07/02 04:49:39;;;;;;;23.60;6.65;;;;;;;;;;5108628;28;20044;-65
2023/07/02 04:52:06;;;;;;;19.58;5.57;;;;;;;;;;5110287;28;20032;-65
2023/07/02 04:54:32;;;;;;;23.85;6.15;;;;;;;;;;5110192;28;20469;-65
2023/07/02 04:56:58;;;;;;;18.25;5.63;;;;;;;;;;5101530;28;20036;-65
2023/07/02 04:59:25;;;;;;;17.48;6.78;;;;;;;;;;5108924;28;20115;-66
2023/07/02 05:01:51;;;;;;;17.17;6.05;;;;;;;;;;5106495;28;20031;-65
2023/07/02 05:04:17;;;;;;;20.73;6.68;;;;;;;;;;5102065;28;20050;-65
2023/07/02 05:06:43;;;;;;;23.10;7.65;;;;;;;;;;5109803;28;20486;-66
2023/07/02 05:09:09;;;;;;;21.73;6.60;;;;;;;;;;5113976;28;20050;-65
2023/07/02 05:11:36;;;;;;;29.58;7.93;;;;;;;;;;5117573;28;20043;-66
2023/07/02 05:14:02;;;;;;;23.42;6.85;;;;;;;;;;5117127;28;20130;-65
2023/07/02 05:16:28;;;;;;;22.48;7.00;;;;;;;;;;5141286;27;20383;-65
2023/07/02 05:18:54;;;;;;;29.02;8.43;;;;;;;;;;5110579;28;20131;-65
2023/07/02 05:21:21;;;;;;;22.70;7.03;;;;;;;;;;5111690;28;20044;-65
2023/07/02 05:23:48;;;;;;;27.23;7.82;;;;;;;;;;5125155;28;20117;-65
2023/07/02 05:26:14;;;;;;;18.42;6.13;;;;;;;;;;5110451;28;20082;-65
2023/07/02 05:28:40;;;;;;;24.20;6.97;;;;;;;;;;5109427;28;20044;-66
2023/07/02 05:31:06;;;;;;;19.38;6.65;;;;;;;;;;5106784;28;20039;-66
2023/07/02 05:33:33;;;;;;;21.23;6.75;;;;;;;;;;5110743;27;20044;-66
2023/07/02 05:35:59;;;;;;;19.63;6.18;;;;;;;;;;5113380;28;20377;-66
2023/07/02 05:38:25;;;;;;;20.35;6.80;;;;;;;;;;5116981;27;20032;-66
2023/07/02 05:40:52;;;;;;;25.55;8.45;;;;;;;;;;5113862;27;20047;-66
2023/07/02 05:43:18;;;;;;;22.00;6.43;;;;;;;;;;5112127;28;20059;-66
2023/07/02 05:45:44;;;;;;;20.45;6.20;;;;;;;;;;5113384;28;20070;-66
2023/07/02 05:48:10;;;;;;;25.77;6.82;;;;;;;;;;5111151;28;20162;-65
2023/07/02 05:50:36;;;;;;;26.77;6.70;;;;;;;;;;5113347;27;20040;-66
2023/07/02 05:53:03;;;;;;;20.90;6.35;;;;;;;;;;5115021;27;20129;-65
2023/07/02 05:55:29;;;;;;;23.20;7.45;;;;;;;;;;5109560;28;20040;-65
2023/07/02 05:57:57;;;;;;;17.95;5.57;;;;;;;;;;5111025;27;20137;-65
2023/07/02 06:00:23;;;;;;;17.95;5.55;;;;;;;;;;5110042;28;20063;-65
2023/07/02 06:02:49;;;;;;;17.13;6.05;;;;;;;;;;5113895;28;20164;-65
2023/07/02 06:05:16;;;;;;;20.23;4.72;;;;;;;;;;5107207;28;20131;-64
2023/07/02 06:07:42;;;;;;;17.13;4.43;;;;;;;;;;5107645;28;20043;-65
2023/07/02 06:10:08;;;;;;;19.58;5.03;;;;;;;;;;5114639;28;20348;-65
2023/07/02 06:12:35;;;;;;;18.48;4.28;;;;;;;;;;5112793;27;20448;-65
2023/07/02 06:15:01;;;;;;;19.02;4.90;;;;;;;;;;5113687;28;20039;-65
2023/07/02 06:17:27;;;;;;;17.98;4.72;;;;;;;;;;5107591;28;20032;-65
2023/07/02 06:19:53;;;;;;;14.75;4.07;;;;;;;;;;5110135;28;20447;-65
2023/07/02 06:22:19;;;;;;;14.52;4.32;;;;;;;;;;5106952;27;20039;-65
2023/07/02 06:24:46;;;;;;;18.45;4.60;;;;;;;;;;5104179;27;20043;-65
2023/07/02 06:27:12;;;;;;;14.23;3.55;;;;;;;;;;5111289;27;20106;-66
2023/07/02 06:29:38;;;;;;;16.80;5.13;;;;;;;;;;5109714;28;20039;-65
2023/07/02 06:32:04;;;;;;;18.70;4.00;;;;;;;;;;5107442;27;20063;-65
2023/07/02 06:34:31;;;;;;;23.52;4.88;;;;;;;;;;5104426;27;20520;-65
2023/07/02 06:36:57;;;;;;;15.52;4.38;;;;;;;;;;5109356;28;20042;-72
2023/07/02 06:39:23;;;;;;;16.13;4.15;;;;;;;;;;5112734;28;20423;-66
2023/07/02 06:41:49;;;;;;;17.98;3.97;;;;;;;;;;5103809;27;20085;-66
2023/07/02 06:44:15;;;;;;;17.00;4.07;;;;;;;;;;5112225;28;20043;-66
2023/07/02 06:46:42;;;;;;;12.68;4.78;;;;;;;;;;5109254;27;20070;-66
2023/07/02 06:49:08;;;;;;;17.23;3.90;;;;;;;;;;5109969;28;20122;-66
2023/07/02 06:51:34;;;;;;;16.10;3.88;;;;;;;;;;5108464;27;20043;-62
2023/07/02 06:54:00;;;;;;;12.70;3.80;;;;;;;;;;5104540;28;20556;-65
2023/07/02 06:56:27;;;;;;;15.93;4.10;;;;;;;;;;5106110;27;20046;-68
2023/07/02 06:58:53;;;;;;;15.98;4.40;;;;;;;;;;5109551;28;20048;-65
2023/07/02 07:01:19;;;;;;;16.40;4.28;;;;;;;;;;5105464;27;20055;-65
2023/07/02 07:03:45;;;;;;;12.77;4.00;;;;;;;;;;5112375;28;20440;-65
2023/07/02 07:06:12;;;;;;;17.33;3.97;;;;;;;;;;5112059;28;20049;-65
2023/07/02 07:08:39;;;;;;;18.20;4.30;;;;;;;;;;5110798;27;20044;-63
2023/07/02 07:11:05;;;;;;;16.52;5.03;;;;;;;;;;5105540;27;20127;-65
2023/07/02 07:13:31;;;;;;;15.68;4.72;;;;;;;;;;5108689;28;20058;-65
2023/07/02 07:15:57;;;;;;;17.42;3.88;;;;;;;;;;5108279;28;20043;-65
2023/07/02 07:18:24;;;;;;;19.80;4.45;;;;;;;;;;5110364;28;20070;-65
2023/07/02 07:20:52;;;;;;;13.45;3.88;;;;;;;;;;5110938;27;20051;-65
2023/07/02 07:23:19;;;;;;;14.85;3.25;;;;;;;;;;5114676;27;20101;-66
2023/07/02 07:25:45;;;;;;;14.88;3.90;;;;;;;;;;5104538;28;20321;-65
2023/07/02 07:28:15;;;;;;;15.00;3.78;;;;;;;;;;5110346;28;20138;-65
2023/07/02 07:30:44;;;;;;;15.43;4.20;;;;;;;;;;5110183;27;20063;-65
2023/07/02 07:33:10;;;;;;;20.65;5.03;;;;;;;;;;5103894;27;20047;-66
2023/07/02 07:35:37;;;;;;;15.52;4.60;;;;;;;;;;5105806;27;20048;-65
2023/07/02 07:38:03;;;;;;;11.82;3.97;;;;;;;;;;5101879;28;20043;-65
2023/07/02 07:40:29;;;;;;;16.40;4.70;;;;;;;;;;5110445;27;20077;-64
2023/07/02 07:42:55;;;;;;;18.65;4.38;;;;;;;;;;5107813;28;20120;-65
2023/07/02 07:45:22;;;;;;;13.32;3.55;;;;;;;;;;5111538;28;20138;-66
2023/07/02 07:47:48;;;;;;;11.07;3.80;;;;;;;;;;5111201;28;20155;-66
2023/07/02 07:50:14;;;;;;;21.58;4.93;;;;;;;;;;5111524;27;20039;-66
2023/07/02 07:52:41;;;;;;;14.63;4.45;;;;;;;;;;5110607;28;20039;-65
2023/07/02 07:55:07;;;;;;;13.38;4.90;;;;;;;;;;5112729;28;20036;-66
2023/07/02 07:57:37;;;;;;;22.08;5.30;;;;;;;;;;5109982;28;20123;-66
2023/07/02 08:00:05;;;;;;;15.00;4.47;;;;;;;;;;5108983;28;20058;-66
2023/07/02 08:02:31;;;;;;;19.77;5.13;;;;;;;;;;5111180;28;20088;-66
2023/07/02 08:04:57;;;;;;;19.23;4.47;;;;;;;;;;5111389;28;20376;-66
2023/07/02 08:07:24;;;;;;;16.40;5.47;;;;;;;;;;5095126;28;20044;-66
2023/07/02 08:09:50;;;;;;;13.73;4.25;;;;;;;;;;5112421;28;20148;-65
2023/07/02 08:12:16;;;;;;;16.50;5.28;;;;;;;;;;5110461;28;20506;-66
2023/07/02 08:14:42;;;;;;;16.52;4.18;;;;;;;;;;5110945;28;20188;-66
2023/07/02 08:17:08;;;;;;;19.35;4.38;;;;;;;;;;5109577;28;20044;-67
2023/07/02 08:19:35;;;;;;;16.92;4.60;;;;;;;;;;5109145;28;20043;-66
2023/07/02 08:22:01;;;;;;;20.13;4.63;;;;;;;;;;5112411;28;20483;-66
2023/07/02 08:24:28;;;;;;;13.70;4.50;;;;;;;;;;5128202;27;20074;-66
2023/07/02 08:26:54;;;;;;;14.38;3.67;;;;;;;;;;5120553;28;20048;-66
2023/07/02 08:29:20;;;;;;;14.02;3.90;;;;;;;;;;5112333;28;20039;-66
2023/07/02 08:31:46;;;;;;;14.05;3.78;;;;;;;;;;5107498;28;20039;-66
2023/07/02 08:34:13;;;;;;;11.00;3.53;;;;;;;;;;5109252;28;20390;-66
2023/07/02 08:36:39;;;;;;;16.67;3.50;;;;;;;;;;5110637;28;20488;-66
2023/07/02 08:39:05;;;;;;;13.00;3.75;;;;;;;;;;5109836;28;20040;-66
2023/07/02 08:41:31;;;;;;;15.48;5.03;;;;;;;;;;5112220;28;20062;-66
2023/07/02 08:43:59;;;;;;;12.48;3.33;;;;;;;;;;5112043;28;20054;-66
2023/07/02 08:46:25;;;;;;;15.23;3.83;;;;;;;;;;5120562;28;20059;-66
2023/07/02 08:48:51;;;;;;;17.83;3.92;;;;;;;;;;5111303;28;20122;-66
2023/07/02 08:51:18;;;;;;;20.17;4.38;;;;;;;;;;5110672;28;20074;-66
2023/07/02 08:53:44;;;;;;;17.10;4.65;;;;;;;;;;5109554;28;20123;-66
2023/07/02 08:56:10;;;;;;;14.57;4.07;;;;;;;;;;5109455;28;20039;-66
2023/07/02 08:58:36;;;;;;;9.85;3.03;;;;;;;;;;5109400;28;20047;-66
2023/07/02 09:01:09;;;;;;;12.55;3.88;;;;;;;;;;5111160;28;20403;-66
2023/07/02 09:03:39;;;;;;;12.98;3.08;;;;;;;;;;5109296;28;20039;-66
2023/07/02 09:06:06;;;;;;;15.10;3.42;;;;;;;;;;5112977;28;20510;-67
2023/07/02 09:08:35;;;;;;;14.40;3.03;;;;;;;;;;5112689;28;20503;-67
2023/07/02 09:11:07;;;;;;;10.23;3.58;;;;;;;;;;5115892;28;20188;-67
2023/07/02 09:13:58;;;;;;;11.95;3.53;;;;;;;;;;5113036;28;20054;-67
2023/07/02 09:16:28;;;;;;;13.85;3.63;;;;;;;;;;5147907;27;20043;-67
2023/07/02 09:19:08;;;;;;;15.43;4.13;;;;;;;;;;5115645;28;20059;-67
2023/07/02 09:21:47;;;;;;;14.20;3.65;;;;;;;;;;5111847;28;20502;-67
2023/07/02 09:24:13;;;;;;;16.58;3.58;;;;;;;;;;5115595;28;20483;-67
2023/07/02 09:26:43;;;;;;;17.00;4.03;;;;;;;;;;5114962;27;20543;-67
2023/07/02 09:29:09;;;;;;;16.83;4.40;;;;;;;;;;5095529;28;20092;-67
2023/07/02 09:31:45;;;;;;;15.60;3.70;;;;;;;;;;5095684;28;20176;-67
2023/07/02 09:34:12;;;;;;;17.20;3.67;;;;;;;;;;5128082;27;20047;-66
2023/07/02 09:36:42;;;;;;;13.95;3.10;;;;;;;;;;5112847;28;20047;-67
2023/07/02 09:39:15;;;;;;;11.35;3.05;;;;;;;;;;5115466;27;20084;-66
2023/07/02 09:41:44;;;;;;;16.40;4.25;;;;;;;;;;5113845;27;20147;-66
2023/07/02 09:44:12;;;;;;;15.00;3.28;;;;;;;;;;5100430;28;20039;-67
2023/07/02 09:46:43;;;;;;;14.15;3.88;;;;;;;;;;5114157;27;20047;-67
2023/07/02 09:49:13;;;;;;;12.68;3.45;;;;;;;;;;5113325;27;20122;-67
2023/07/02 09:51:40;;;;;;;16.92;4.25;;;;;;;;;;5113961;28;20035;-67
2023/07/02 09:54:06;;;;;;;12.93;3.20;;;;;;;;;;5107925;28;20059;-67
2023/07/02 09:56:32;;;;;;;10.90;3.35;;;;;;;;;;5114292;28;20051;-67
2023/07/02 09:58:59;;;;;;;9.57;2.90;;;;;;;;;;5111496;27;20040;-66
2023/07/02 10:01:25;;;;;;;17.35;4.28;;;;;;;;;;5114060;28;20053;-67
2023/07/02 10:03:51;;;;;;;16.50;4.25;;;;;;;;;;5113037;27;20079;-65
2023/07/02 10:06:17;;;;;;;16.48;4.10;;;;;;;;;;5112819;28;20115;-67
2023/07/02 10:08:54;;;;;;;14.05;4.35;;;;;;;;;;5113612;27;20373;-67
2023/07/02 10:11:20;;;;;;;15.00;4.35;;;;;;;;;;5112588;28;20124;-67
2023/07/02 10:13:46;;;;;;;10.02;3.55;;;;;;;;;;5112541;28;20537;-67
2023/07/02 10:16:13;;;;;;;15.55;3.80;;;;;;;;;;5113571;27;20052;-67
2023/07/02 10:18:39;;;;;;;13.80;3.05;;;;;;;;;;5107003;27;20126;-67
2023/07/02 10:21:24;;;;;;;10.55;3.28;;;;;;;;;;5109415;27;20040;-67
2023/07/02 10:23:50;;;;;;;14.10;3.33;;;;;;;;;;5108194;28;20036;-67
2023/07/02 10:26:19;;;;;;;16.02;3.80;;;;;;;;;;5112400;28;20558;-67
2023/07/02 10:29:06;;;;;;;11.93;3.15;;;;;;;;;;5113287;27;20044;-67
2023/07/02 10:31:32;;;;;;;9.63;3.20;;;;;;;;;;5114190;28;20451;-67
2023/07/02 10:33:58;;;;;;;14.98;3.55;;;;;;;;;;5111789;27;20097;-67
2023/07/02 10:36:25;;;;;;;12.45;3.10;;;;;;;;;;5111655;27;20043;-67
2023/07/02 10:38:52;;;;;;;13.52;3.75;;;;;;;;;;5112398;27;20050;-67
2023/07/02 10:41:28;;;;;;;13.65;3.30;;;;;;;;;;5113031;28;20119;-67
2023/07/02 10:43:56;;;;;;;18.27;3.83;;;;;;;;;;5112449;27;20130;-67
2023/07/02 10:46:22;;;;;;;13.43;3.28;;;;;;;;;;5111940;27;20067;-67
2023/07/02 10:48:55;;;;;;;8.65;2.35;;;;;;;;;;5113712;27;20051;-67
2023/07/02 10:51:21;;;;;;;22.10;3.15;;;;;;;;;;5100352;28;20051;-67
2023/07/02 10:54:00;;;;;;;14.35;3.75;;;;;;;;;;5110923;28;20086;-67
2023/07/02 10:56:29;;;;;;;11.40;3.30;;;;;;;;;;5113797;28;20039;-67
2023/07/02 10:58:56;;;;;;;10.90;3.22;;;;;;;;;;5096826;27;20482;-67
2023/07/02 11:01:26;;;;;;;10.32;3.05;;;;;;;;;;5112978;28;20043;-67
2023/07/02 11:03:59;;;;;;;10.43;2.80;;;;;;;;;;5111921;27;20047;-67
2023/07/02 11:06:26;;;;;;;10.50;3.10;;;;;;;;;;5111746;28;20166;-67
2023/07/02 11:08:55;;;;;;;12.68;3.10;;;;;;;;;;5113629;27;20032;-67
2023/07/02 11:11:22;;;;;;;9.23;2.75;;;;;;;;;;5112119;28;20039;-67
2023/07/02 11:13:49;;;;;;;9.77;3.30;;;;;;;;;;5109795;27;20482;-67
2023/07/02 11:16:19;;;;;;;9.75;2.97;;;;;;;;;;5109552;28;20055;-67
2023/07/02 11:18:45;;;;;;;7.82;2.60;;;;;;;;;;5110598;27;20204;-67
2023/07/02 11:21:11;;;;;;;12.80;3.53;;;;;;;;;;5108633;28;20048;-67
2023/07/02 11:23:37;;;;;;;12.68;2.78;;;;;;;;;;5115915;27;20031;-67
2023/07/02 11:26:04;;;;;;;12.52;3.22;;;;;;;;;;5110118;28;20518;-67
2023/07/02 11:28:32;;;;;;;9.38;3.05;;;;;;;;;;5109220;28;20059;-66
2023/07/02 11:30:59;;;;;;;9.90;2.90;;;;;;;;;;5111025;28;20052;-79
2023/07/02 11:33:35;;;;;;;10.43;3.25;;;;;;;;;;5108318;28;20491;-66
2023/07/02 11:36:01;;;;;;;8.85;3.13;;;;;;;;;;5114016;27;20039;-67
2023/07/02 11:38:27;;;;;;;10.82;2.88;;;;;;;;;;5111546;27;20062;-67
2023/07/02 11:40:54;;;;;;;12.38;3.67;;;;;;;;;;5125787;27;20051;-68
2023/07/02 11:43:20;;;;;;;11.25;4.05;;;;;;;;;;5109603;28;20478;-67
2023/07/02 11:45:46;;;;;;;9.55;3.03;;;;;;;;;;5112719;28;20079;-67
2023/07/02 11:48:12;;;;;;;14.38;3.25;;;;;;;;;;5112178;28;20050;-67
2023/07/02 11:50:39;;;;;;;8.00;2.80;;;;;;;;;;5112093;28;20161;-67
2023/07/02 11:53:05;;;;;;;11.57;2.95;;;;;;;;;;5113462;27;20327;-67
2023/07/02 11:55:31;;;;;;;14.30;3.60;;;;;;;;;;5112336;27;20089;-67
2023/07/02 11:57:57;;;;;;;9.65;3.35;;;;;;;;;;5111409;28;20039;-66
2023/07/02 12:00:23;;;;;;;9.77;2.85;;;;;;;;;;5094704;28;20046;-66
2023/07/02 12:02:50;;;;;;;16.65;3.38;;;;;;;;;;5111335;27;20040;-66
2023/07/02 12:05:16;;;;;;;12.88;3.35;;;;;;;;;;5107822;27;20467;-66
2023/07/02 12:07:42;;;;;;;10.63;3.38;;;;;;;;;;5111076;28;20066;-77
2023/07/02 12:10:08;;;;;;;10.48;3.20;;;;;;;;;;5110312;28;20512;-66
2023/07/02 12:12:34;;;;;;;11.43;3.55;;;;;;;;;;5110349;27;20043;-66
2023/07/02 12:15:01;;;;;;;12.95;3.78;;;;;;;;;;5112475;28;20040;-66
2023/07/02 12:17:27;;;;;;;10.82;3.50;;;;;;;;;;5109537;27;20497;-66
2023/07/02 12:19:53;;;;;;;12.68;3.67;;;;;;;;;;5110224;28;20075;-66
2023/07/02 12:22:22;;;;;;;11.55;3.45;;;;;;;;;;5103524;27;20055;-66
2023/07/02 12:24:49;;;;;;;11.80;3.85;;;;;;;;;;5108897;28;20043;-66
2023/07/02 12:27:16;;;;;;;10.95;3.53;;;;;;;;;;5110537;28;20499;-67
2023/07/02 12:29:42;;;;;;;13.00;4.30;;;;;;;;;;5109829;28;20105;-67
2023/07/02 12:32:09;;;;;;;15.95;4.28;;;;;;;;;;5079211;28;20036;-66
2023/07/02 12:34:35;;;;;;;11.55;4.18;;;;;;;;;;5100761;28;20039;-67
2023/07/02 12:37:01;;;;;;;13.35;4.05;;;;;;;;;;5110227;28;20043;-67
2023/07/02 12:39:27;;;;;;;13.27;3.60;;;;;;;;;;5109099;28;20130;-67
2023/07/02 12:41:53;;;;;;;13.85;4.00;;;;;;;;;;5109352;27;20051;-67
2023/07/02 12:44:20;;;;;;;12.20;3.80;;;;;;;;;;5112702;27;20032;-66
2023/07/02 12:46:47;;;;;;;9.75;3.78;;;;;;;;;;5115442;28;20051;-67
2023/07/02 12:49:13;;;;;;;24.00;4.30;;;;;;;;;;5116071;28;20058;-66
2023/07/02 12:51:39;;;;;;;9.20;3.53;;;;;;;;;;5112337;28;20352;-67
2023/07/02 12:54:05;;;;;;;10.40;3.75;;;;;;;;;;5114157;28;20078;-67
2023/07/02 12:56:31;;;;;;;10.95;3.10;;;;;;;;;;5114394;28;20093;-67
2023/07/02 12:58:57;;;;;;;9.70;3.17;;;;;;;;;;5114626;28;20497;-67
2023/07/02 13:01:24;;;;;;;15.10;4.43;;;;;;;;;;5115419;27;20081;-67
2023/07/02 13:03:50;;;;;;;17.92;4.43;;;;;;;;;;5116159;28;20094;-67
2023/07/02 13:06:17;;;;;;;10.48;3.65;;;;;;;;;;5113264;28;20344;-67
2023/07/02 13:08:43;;;;;;;9.73;4.03;;;;;;;;;;5114551;28;20376;-67
2023/07/02 13:11:09;;;;;;;11.77;3.88;;;;;;;;;;5116112;27;20035;-66
2023/07/02 13:13:36;;;;;;;10.10;4.32;;;;;;;;;;5114023;28;20051;-67
2023/07/02 13:16:02;;;;;;;12.13;4.45;;;;;;;;;;5115918;28;20168;-66
2023/07/02 13:18:28;;;;;;;11.07;4.32;;;;;;;;;;5113977;27;20401;-67
2023/07/02 13:20:55;;;;;;;12.95;4.35;;;;;;;;;;5113397;28;20134;-67
2023/07/02 13:23:21;;;;;;;13.20;4.32;;;;;;;;;;5114049;27;20200;-67
2023/07/02 13:25:47;;;;;;;11.70;3.30;;;;;;;;;;5115604;27;20031;-67
2023/07/02 13:28:13;;;;;;;11.02;4.05;;;;;;;;;;5114683;28;20510;-67
2023/07/02 13:30:39;;;;;;;10.50;3.88;;;;;;;;;;5114212;28;20056;-67
2023/07/02 13:33:06;;;;;;;15.40;4.03;;;;;;;;;;5115604;28;20122;-67
2023/07/02 13:35:32;;;;;;;13.02;4.15;;;;;;;;;;5115783;27;20058;-66
2023/07/02 13:37:59;;;;;;;20.20;4.57;;;;;;;;;;5114913;28;20043;-67
2023/07/02 13:40:25;;;;;;;6.63;3.33;;;;;;;;;;5114133;28;20052;-67
2023/07/02 13:42:52;;;;;;;15.32;4.80;;;;;;;;;;5111746;28;20055;-67
2023/07/02 13:45:18;;;;;;;11.45;4.03;;;;;;;;;;5109988;28;20425;-67
2023/07/02 13:47:45;;;;;;;17.98;5.15;;;;;;;;;;5113471;28;20079;-67
2023/07/02 13:50:11;;;;;;;14.05;4.22;;;;;;;;;;5115436;27;20058;-67
2023/07/02 13:52:37;;;;;;;10.25;4.25;;;;;;;;;;5147749;27;20040;-67
2023/07/02 13:55:04;;;;;;;9.13;4.53;;;;;;;;;;5112992;27;20585;-67
2023/07/02 13:57:31;;;;;;;11.48;4.40;;;;;;;;;;5109920;27;20078;-67
2023/07/02 13:59:57;;;;;;;14.13;4.38;;;;;;;;;;5114934;28;20131;-66
2023/07/02 14:02:24;;;;;;;16.20;4.80;;;;;;;;;;5111695;28;20040;-67
2023/07/02 14:04:50;;;;;;;12.20;4.38;;;;;;;;;;5113081;28;20112;-67
2023/07/02 14:07:16;;;;;;;14.13;4.25;;;;;;;;;;5113518;28;20063;-67
2023/07/02 14:09:42;;;;;;;16.52;5.28;;;;;;;;;;5112887;28;20051;-67
2023/07/02 14:12:09;;;;;;;14.32;5.07;;;;;;;;;;5114054;28;20037;-67
2023/07/02 14:14:35;;;;;;;12.57;4.63;;;;;;;;;;5114581;28;20535;-67
2023/07/02 14:17:02;;;;;;;16.50;4.53;;;;;;;;;;5113747;27;20044;-67
2023/07/02 14:19:28;;;;;;;13.13;4.47;;;;;;;;;;5109698;28;20075;-67
2023/07/02 14:21:54;;;;;;;17.90;4.68;;;;;;;;;;5112095;27;20035;-66
2023/07/02 14:24:20;;;;;;;13.85;4.63;;;;;;;;;;5112636;28;20130;-66
2023/07/02 14:26:46;;;;;;;12.65;4.35;;;;;;;;;;5113211;27;20455;-67
2023/07/02 14:29:13;;;;;;;16.13;4.53;;;;;;;;;;5113892;28;20047;-67